This is the latest recevied weather packets stored in our database for station/object DG2HSI-10. If no packets are shown the sender has not sent any weather packets the latest 10 day(s).
| Time | Temp. | Humidity | Pressure | Rain* | Wind** | Luminosity | Snow |
|---|---|---|---|---|---|---|---|
| 1777724155 | 35° C | 23% | 1020.5 hPa | - | - | - | - |
| 1777722955 | 34.44° C | 23% | 1020.8 hPa | - | - | - | - |
| 1777721755 | 32.78° C | 25% | 1021.1 hPa | - | - | - | - |
| 1777720554 | 32.78° C | 26% | 1021.3 hPa | - | - | - | - |
| 1777719354 | 32.78° C | 25% | 1021.7 hPa | - | - | - | - |
| 1777718154 | 31.67° C | 26% | 1022 hPa | - | - | - | - |
| 1777716954 | 32.22° C | 27% | 1022.2 hPa | - | - | - | - |
| 1777715754 | 28.89° C | 28% | 1022.3 hPa | - | - | - | - |
| 1777714554 | 30° C | 28% | 1022.4 hPa | - | - | - | - |
| 1777713354 | 32.22° C | 26% | 1022.6 hPa | - | - | - | - |
| 1777712153 | 28.89° C | 28% | 1022.6 hPa | - | - | - | - |
| 1777710953 | 30° C | 27% | 1022.8 hPa | - | - | - | - |
| 1777709753 | 27.22° C | 29% | 1022.9 hPa | - | - | - | - |
| 1777708553 | 26.67° C | 31% | 1023 hPa | - | - | - | - |
| 1777707353 | 23.89° C | 33% | 1023.1 hPa | - | - | - | - |
| 1777706152 | 21.11° C | 38% | 1023.3 hPa | - | - | - | - |
| 1777704952 | 18.89° C | 44% | 1023.3 hPa | - | - | - | - |
| 1777703752 | 15° C | 62% | 1023.4 hPa | - | - | - | - |
| 1777702552 | 12.78° C | 64% | 1023.5 hPa | - | - | - | - |
| 1777701352 | 12.22° C | 66% | 1023.7 hPa | - | - | - | - |
| 1777700152 | 11.11° C | 68% | 1023.8 hPa | - | - | - | - |
| 1777698951 | 10.56° C | 67% | 1023.8 hPa | - | - | - | - |
| 1777697751 | 10° C | 67% | 1023.7 hPa | - | - | - | - |
| 1777696551 | 10° C | 67% | 1023.7 hPa | - | - | - | - |
| 1777695351 | 10° C | 67% | 1023.8 hPa | - | - | - | - |
* Rain since midnight (hover to see other rain measurements)
** Current wind speed in m/s (hover to see current wind gust speed)